• Join FlightAware (Why Join?)
  • Login
  • US Flag 
03:22PM EST


 

Airport Tracker/Info


-or-


 

Live Flight TrackerFlight Track Log ✈ ASQ5025 ✈ 22-Apr-2013 ✈ KLGA - KBTV

Flight Track Log - Related Links

Times and Time Zones

All times are in EDT time to prevent confusion due to time zone crossing. See the ASQ5025 flight status page for this flight to view local times or setup timezone preferences in your user account.

Time Position Orientation Groundspeed Altitude Reporting Facility
EDT Latitude Longitude Course Direction KTS MPH feet Rate Location/Type
09:53AM 40.7667 -73.8500 66° East 146 168 1,900  Level New York TRACON
09:55AM 40.8006 -73.7478 66° East 136 157 8,600 2,700 Climbing Boston Center
09:56AM 40.8742 -73.7000 26° Northeast 212 244 11,100 2,340 Climbing Boston Center
09:57AM 40.9622 -73.6467 25° Northeast 286 329 13,300 2,400 Climbing Boston Center
09:58AM 41.0544 -73.5878 26° Northeast 326 375 15,900 2,160 Climbing Boston Center
09:59AM 41.1406 -73.5314 26° Northeast 374 430 18,100 1,860 Climbing Boston Center
10:00AM 41.2725 -73.4508 25° Northeast 398 458 20,000 1,920 Climbing Boston Center
10:01AM 41.3772 -73.3833 26° Northeast 404 465 22,000 1,800 Climbing Boston Center
10:02AM 41.4861 -73.3214 23° Northeast 409 471 23,600 1,500 Climbing Boston Center
10:03AM 41.6031 -73.3228 359° North 403 464 25,000 1,560 Climbing Boston Center
10:04AM 41.7258 -73.3247 359° North 417 480 26,800 960 Climbing Boston Center
10:05AM 41.8550 -73.3264 359° North 432 497 27,000 60 Climbing Boston Center
10:06AM 41.9864 -73.3311 358° North 455 524 27,000  Level Boston Center
10:07AM 42.1197 -73.3331 359° North 469 540 27,000  Level Boston Center
10:08AM 42.2553 -73.3350 359° North 474 545 27,000 -60 Level Boston Center
10:09AM 42.3739 -73.3281 North 474 545 26,900  Descending Boston Center
10:10AM 42.4992 -73.3300 359° North 468 539 27,000  Climbing Boston Center
10:11AM 42.6406 -73.3433 356° North 458 527 27,000  Level Boston Center
10:12AM 42.7553 -73.3450 359° North 458 527 27,000  Level Boston Center
10:13AM 42.8825 -73.3439 360° North 458 527 27,000  Level Boston Center
10:14AM 43.0094 -73.3458 359° North 458 527 27,000 -240 Level Boston Center
10:15AM 43.1347 -73.3306 North 458 527 26,600 -1,020 Descending Boston Center
10:16AM 43.2578 -73.3153 North 458 527 25,000 -1,320 Descending Boston Center
10:17AM 43.3725 -73.2969 North 435 501 24,000 -1,320 Descending Boston Center
10:18AM 43.4978 -73.2786 North 421 484 22,400 -2,100 Descending Boston Center
10:19AM 43.6078 -73.3117 348° North 404 465 19,900 -2,280 Descending Boston Center
10:20AM 43.7014 -73.3447 346° North 388 447 17,900 -1,740 Descending Boston Center
10:21AM 43.7950 -73.3750 347° North 367 422 16,500 -1,800 Descending Boston Center
10:22AM 43.8864 -73.3936 352° North 338 389 14,400 -2,100 Descending Boston Center
10:23AM 43.9739 -73.3978 358° North 324 373 12,400 -2,160 Descending Boston Center
10:24AM 44.0675 -73.4108 354° North 312 359 10,100 -1,920 Descending Boston Center
10:25AM 44.1467 -73.4208 355° North 294 338 8,600 -1,500 Descending Boston Center
10:26AM 44.2239 -73.4047 North 281 323 7,100 -1,500 Descending Boston Center
10:27AM 44.2972 -73.3769 15° North 271 312 5,600 -1,500 Descending Boston Center
10:28AM 44.3703 -73.3492 15° North 266 306 4,100 -1,500 Descending Boston Center
10:29AM 44.4433 -73.3239 14° North 266 306 2,600 -1,080 Descending Boston Center
10:30AM 44.5039 -73.2928 20° North 249 287 2,000 -300 Descending Boston Center
10:31AM 44.5294 -73.2439 54° Northeast 161 185 2,100 -420 Climbing Boston Center
10:32AM 44.5067 -73.2086 132° Southeast 106 122 1,200 4,440 Descending Boston Center
10:33AM 44.4839 -73.1733 132° Southeast 114 131 11,000 4,860 Climbing Boston Center
10:34AM 44.4694 -73.1528 135° Southeast 120 138 11,000  Level Boston Center
10:35AM 44.4653 -73.1528 180° South 68 78 11,000  Level Boston Center
10:36AM 44.4572 -73.1439 142° Southeast 50 58 11,000  Level Boston Center